createdAt,value
2022-11-14T00:02:16.331Z,65.90
2022-11-14T00:05:06.739Z,71.80
2022-11-14T00:07:54.627Z,65.80
2022-11-14T00:10:46.008Z,64.30
2022-11-14T00:13:36.098Z,62.60
2022-11-14T00:16:26.375Z,64.50
2022-11-14T00:19:14.403Z,64.10
2022-11-14T00:22:02.286Z,63.30
2022-11-14T00:24:50.319Z,64.40
2022-11-14T00:27:38.052Z,63.70
2022-11-14T00:30:30.270Z,64.40
2022-11-14T00:33:21.476Z,62.30
2022-11-14T00:36:09.470Z,61.40
2022-11-14T00:38:56.940Z,62.40
2022-11-14T00:41:44.500Z,66.60
2022-11-14T00:44:32.215Z,64.10
2022-11-14T00:47:20.264Z,64.10
2022-11-14T00:50:10.698Z,65.60
2022-11-14T00:52:58.607Z,61.40
2022-11-14T00:55:46.053Z,63.60
2022-11-14T00:58:36.426Z,65.10
2022-11-14T01:01:29.411Z,64.30
2022-11-14T01:04:17.041Z,62.00
2022-11-14T01:07:10.580Z,61.10
2022-11-14T01:09:58.378Z,61.80
2022-11-14T01:12:49.311Z,60.50
2022-11-14T01:15:48.781Z,62.10
2022-11-14T01:18:38.059Z,61.70
2022-11-14T01:21:25.813Z,59.80
2022-11-14T01:24:15.497Z,60.30
2022-11-14T01:27:03.299Z,58.40
2022-11-14T01:29:51.259Z,59.80
2022-11-14T01:32:39.142Z,54.50
2022-11-14T01:35:27.144Z,57.50
2022-11-14T01:38:15.996Z,58.40
2022-11-14T01:41:06.085Z,59.10
2022-11-14T01:43:55.123Z,58.60
2022-11-14T01:46:47.562Z,58.90
2022-11-14T01:49:46.996Z,57.10
2022-11-14T01:52:39.422Z,54.50
2022-11-14T01:55:27.565Z,55.70
2022-11-14T01:58:17.048Z,57.50
2022-11-14T02:01:06.472Z,50.70
2022-11-14T02:03:56.515Z,56.40
2022-11-14T02:06:46.420Z,58.40
2022-11-14T02:09:42.957Z,56.50
2022-11-14T02:12:31.498Z,56.60
2022-11-14T02:15:20.335Z,55.30
2022-11-14T02:18:08.076Z,55.60
2022-11-14T02:20:55.610Z,55.50
2022-11-14T02:23:43.478Z,59.20
2022-11-14T02:26:36.936Z,53.60
2022-11-14T02:29:24.795Z,53.90
2022-11-14T02:32:12.438Z,58.00
2022-11-14T02:34:59.963Z,58.10
2022-11-14T02:37:48.899Z,54.30
2022-11-14T02:40:36.996Z,55.30
2022-11-14T02:43:24.618Z,53.70
2022-11-14T02:46:12.322Z,55.80
2022-11-14T02:48:59.981Z,52.10
2022-11-14T02:51:47.363Z,52.40
2022-11-14T02:54:34.796Z,50.40
2022-11-14T02:57:24.763Z,50.70
2022-11-14T03:00:15.148Z,50.60
2022-11-14T03:03:07.621Z,50.20
2022-11-14T03:08:50.258Z,46.20
2022-11-14T03:11:39.455Z,47.10
2022-11-14T03:14:31.635Z,46.80
2022-11-14T03:17:19.010Z,46.90
2022-11-14T03:20:08.760Z,44.50
2022-11-14T03:22:58.774Z,48.20
2022-11-14T03:25:46.401Z,50.80
2022-11-14T03:28:37.129Z,49.40
2022-11-14T03:31:28.376Z,48.70
2022-11-14T03:34:15.850Z,49.90
2022-11-14T03:37:08.726Z,46.00
2022-11-14T03:39:56.647Z,45.60
2022-11-14T03:42:46.413Z,46.20
2022-11-14T03:45:33.908Z,46.00
2022-11-14T03:48:21.391Z,48.00
2022-11-14T03:51:08.874Z,45.70
2022-11-14T03:53:56.418Z,44.80
2022-11-14T03:56:47.891Z,47.10
2022-11-14T03:59:37.776Z,48.80
2022-11-14T04:02:25.269Z,47.50
2022-11-14T04:05:13.012Z,46.30
2022-11-14T04:08:00.732Z,48.10
2022-11-14T04:10:51.281Z,45.80
2022-11-14T04:13:42.384Z,46.70
2022-11-14T04:16:31.382Z,43.30
2022-11-14T04:19:20.329Z,41.60
2022-11-14T04:22:08.374Z,45.00
2022-11-14T04:24:56.043Z,43.90
2022-11-14T04:27:44.272Z,44.80
2022-11-14T04:30:37.757Z,47.10
2022-11-14T04:33:26.016Z,42.10
2022-11-14T04:36:14.048Z,45.00
2022-11-14T04:39:06.046Z,45.30
2022-11-14T04:41:53.880Z,44.20
2022-11-14T04:44:41.468Z,43.10
2022-11-14T04:47:30.404Z,41.70
2022-11-14T04:50:21.673Z,41.70
2022-11-14T04:53:09.761Z,42.10
2022-11-14T04:55:57.413Z,41.70
2022-11-14T04:58:45.295Z,44.50
2022-11-14T05:01:33.357Z,42.70
2022-11-14T05:04:33.172Z,41.90
2022-11-14T05:07:23.682Z,38.00
2022-11-14T05:10:14.953Z,41.00
2022-11-14T05:13:04.825Z,43.00
2022-11-14T05:15:52.867Z,40.00
2022-11-14T05:18:45.810Z,41.60
2022-11-14T05:21:37.054Z,40.30
2022-11-14T05:24:28.697Z,47.00
2022-11-14T05:27:16.504Z,42.20
2022-11-14T05:30:04.944Z,41.70
2022-11-14T05:32:53.031Z,43.00
2022-11-14T05:35:40.713Z,46.20
2022-11-14T05:38:28.970Z,44.70
2022-11-14T05:41:22.204Z,42.80
2022-11-14T05:44:09.998Z,43.30
2022-11-14T05:46:57.624Z,44.30
2022-11-14T05:49:48.491Z,38.60
2022-11-14T05:52:39.012Z,42.40
2022-11-14T05:55:26.945Z,40.10
2022-11-14T05:58:18.295Z,42.40
2022-11-14T06:01:08.878Z,39.10
2022-11-14T06:03:56.848Z,38.90
2022-11-14T06:06:44.682Z,37.90
2022-11-14T06:09:32.116Z,37.00
2022-11-14T06:12:23.095Z,39.90
2022-11-14T06:15:10.997Z,47.60
2022-11-14T06:17:59.689Z,41.60
2022-11-14T06:21:14.753Z,44.30
2022-11-14T06:24:04.879Z,42.50
2022-11-14T06:26:52.893Z,44.60
2022-11-14T06:29:43.191Z,44.80
2022-11-14T06:32:45.281Z,46.60
2022-11-14T06:35:33.536Z,44.80
2022-11-14T06:38:21.622Z,42.70
2022-11-14T06:41:24.808Z,41.50
2022-11-14T06:44:15.720Z,37.50
2022-11-14T06:47:10.913Z,36.20
2022-11-14T06:50:01.849Z,35.00
2022-11-14T06:55:42.116Z,35.10
2022-11-14T06:58:36.583Z,37.80
2022-11-14T07:01:29.042Z,37.10
2022-11-14T07:04:21.971Z,35.20
2022-11-14T07:07:12.566Z,34.60
2022-11-14T07:10:01.732Z,34.60
2022-11-14T07:12:58.339Z,32.70
2022-11-14T07:15:55.917Z,39.90
2022-11-14T07:18:43.889Z,35.40
2022-11-14T07:21:34.742Z,37.20
2022-11-14T07:24:23.775Z,39.00
2022-11-14T07:27:11.692Z,40.60
2022-11-14T07:29:59.816Z,39.00
2022-11-14T07:32:47.641Z,39.70
2022-11-14T07:35:43.646Z,38.50
2022-11-14T07:38:40.739Z,35.80
2022-11-14T07:44:16.641Z,35.10
2022-11-14T07:47:13.032Z,36.00
2022-11-14T07:50:00.834Z,36.40
2022-11-14T07:52:52.832Z,37.10
2022-11-14T07:55:44.084Z,39.50
2022-11-14T08:01:25.729Z,35.00
2022-11-14T08:04:15.806Z,33.60
2022-11-14T08:07:09.592Z,34.80
2022-11-14T08:09:57.537Z,34.70
2022-11-14T08:12:48.384Z,34.10
2022-11-14T08:15:40.788Z,32.70
2022-11-14T08:18:30.571Z,31.90
2022-11-14T08:21:18.525Z,34.30
2022-11-14T08:24:08.243Z,32.30
2022-11-14T08:26:58.039Z,33.40
2022-11-14T08:29:49.943Z,32.90
2022-11-14T08:32:37.815Z,34.80
2022-11-14T08:35:25.264Z,33.70
2022-11-14T08:38:12.638Z,31.00
2022-11-14T08:41:08.067Z,35.70
2022-11-14T08:44:03.896Z,36.60
2022-11-14T08:46:52.237Z,34.70
2022-11-14T08:49:39.823Z,32.00
2022-11-14T08:52:28.627Z,32.10
2022-11-14T08:55:23.613Z,31.30
2022-11-14T08:58:11.670Z,32.30
2022-11-14T09:01:09.503Z,30.40
2022-11-14T09:03:59.997Z,32.40
2022-11-14T09:06:49.463Z,31.80
2022-11-14T09:09:40.433Z,32.20
2022-11-14T09:12:30.736Z,32.50
2022-11-14T09:15:38.129Z,31.80
2022-11-14T09:18:33.874Z,32.20
2022-11-14T09:21:26.294Z,32.40
2022-11-14T09:24:18.329Z,32.40
2022-11-14T09:27:11.291Z,29.60
2022-11-14T09:30:09.019Z,29.50
2022-11-14T09:33:10.052Z,27.80
2022-11-14T09:36:18.308Z,28.00
2022-11-14T09:43:02.007Z,27.20
2022-11-14T09:45:56.762Z,28.60
2022-11-14T09:48:57.243Z,28.80
2022-11-14T09:52:56.699Z,28.90
2022-11-14T09:56:05.937Z,33.50
2022-11-14T09:59:22.327Z,32.40
2022-11-14T10:03:11.466Z,29.40
2022-11-14T10:07:08.686Z,32.30
2022-11-14T10:10:42.930Z,29.40
2022-11-14T10:14:07.924Z,30.50
2022-11-14T10:17:56.853Z,31.80
2022-11-14T10:21:04.744Z,30.20
2022-11-14T10:24:08.066Z,28.90
2022-11-14T10:27:52.524Z,29.70
2022-11-14T10:31:14.939Z,29.60
2022-11-14T10:38:32.161Z,32.10
2022-11-14T10:41:56.306Z,31.50
2022-11-14T10:45:03.330Z,30.10
2022-11-14T10:48:28.362Z,30.90
2022-11-14T10:52:08.190Z,29.90
2022-11-14T10:55:43.491Z,28.80
2022-11-14T10:58:48.964Z,32.40
2022-11-14T11:02:23.024Z,32.20
2022-11-14T11:05:33.545Z,33.20
2022-11-14T11:08:51.566Z,32.60
2022-11-14T11:12:28.330Z,33.00
2022-11-14T11:15:42.839Z,34.00
2022-11-14T11:18:50.737Z,34.50
2022-11-14T11:23:32.130Z,34.20
2022-11-14T11:26:38.399Z,32.90
2022-11-14T11:29:44.632Z,32.50
2022-11-14T11:32:42.499Z,35.10
2022-11-14T11:35:33.422Z,35.20
2022-11-14T11:38:42.842Z,35.00
2022-11-14T11:45:28.818Z,34.20
2022-11-14T11:48:51.462Z,35.20
2022-11-14T11:52:08.436Z,35.00
2022-11-14T11:55:22.581Z,34.60
2022-11-14T11:59:37.755Z,35.50
2022-11-14T12:02:55.939Z,36.70
2022-11-14T12:06:23.303Z,35.20
2022-11-14T12:13:27.830Z,35.20
2022-11-14T12:17:05.313Z,35.70
2022-11-14T12:20:50.087Z,34.40
2022-11-14T12:24:27.600Z,37.30
2022-11-14T12:27:54.293Z,33.40
2022-11-14T12:31:11.875Z,33.60
2022-11-14T12:34:17.369Z,48.80
2022-11-14T12:37:36.770Z,36.80
2022-11-14T12:40:42.545Z,38.10
2022-11-14T12:43:44.268Z,34.90
2022-11-14T12:47:34.584Z,40.20
2022-11-14T12:50:56.512Z,35.70
2022-11-14T12:53:54.559Z,36.30
2022-11-14T12:56:58.735Z,38.30
2022-11-14T13:00:07.328Z,37.50
2022-11-14T13:04:09.413Z,35.80
2022-11-14T13:07:37.922Z,35.90
2022-11-14T13:11:14.395Z,37.80
2022-11-14T13:14:33.361Z,38.60
2022-11-14T13:18:16.630Z,38.90
2022-11-14T13:22:01.555Z,39.50
2022-11-14T13:36:05.398Z,35.10
2022-11-14T13:40:04.514Z,35.90
2022-11-14T13:47:29.721Z,34.70
2022-11-14T13:50:51.271Z,31.70
2022-11-14T13:53:57.309Z,32.80
2022-11-14T13:58:02.682Z,33.20
2022-11-14T14:01:36.279Z,36.60
2022-11-14T14:09:36.110Z,33.40
2022-11-14T14:13:35.627Z,36.70
2022-11-14T14:17:03.752Z,39.30
2022-11-14T14:20:55.683Z,35.00
2022-11-14T14:28:11.022Z,36.90
2022-11-14T14:31:39.151Z,38.30
2022-11-14T14:34:44.897Z,38.20
2022-11-14T14:38:18.603Z,41.50
2022-11-14T14:41:45.864Z,38.20
2022-11-14T14:44:58.729Z,37.80
2022-11-14T14:48:32.326Z,39.40
2022-11-14T14:51:39.627Z,36.50
2022-11-14T14:55:32.177Z,38.00
2022-11-14T14:58:40.661Z,40.60
2022-11-14T15:02:00.673Z,39.70
2022-11-14T15:06:49.156Z,42.30
2022-11-14T15:09:20.218Z,41.40
2022-11-14T15:12:30.130Z,40.80
2022-11-14T15:16:56.006Z,41.80
2022-11-14T15:20:35.543Z,43.00
2022-11-14T15:23:32.024Z,45.10
2022-11-14T15:26:46.620Z,45.30
2022-11-14T15:30:37.145Z,46.90
2022-11-14T15:33:37.755Z,46.30
2022-11-14T15:37:29.776Z,46.60
2022-11-14T15:42:01.953Z,46.60
2022-11-14T15:43:53.759Z,48.00
2022-11-14T15:47:39.792Z,47.10
2022-11-14T15:50:40.442Z,57.20
2022-11-14T15:53:36.316Z,52.40
2022-11-14T15:56:35.051Z,50.10
2022-11-14T15:59:36.747Z,51.40
2022-11-14T16:02:37.224Z,53.60
2022-11-14T16:05:56.862Z,59.00
2022-11-14T16:09:02.409Z,84.40
2022-11-14T16:11:59.087Z,85.10
2022-11-14T16:14:51.278Z,80.00
2022-11-14T16:17:46.379Z,64.00
2022-11-14T16:20:41.917Z,62.60
2022-11-14T16:23:42.210Z,59.30
2022-11-14T16:26:49.872Z,64.10
2022-11-14T16:29:40.131Z,58.40
2022-11-14T16:32:55.606Z,63.90
2022-11-14T16:35:55.048Z,64.50
2022-11-14T16:39:20.727Z,63.00
2022-11-14T16:43:53.667Z,66.90
2022-11-14T16:45:43.760Z,69.40
2022-11-14T16:48:37.484Z,64.50
2022-11-14T16:52:15.527Z,68.80
2022-11-14T16:55:10.526Z,70.00
2022-11-14T16:58:20.609Z,73.30
2022-11-14T17:01:38.319Z,76.30
2022-11-14T17:04:33.404Z,70.80
2022-11-14T17:07:53.034Z,62.30
2022-11-14T17:10:51.672Z,73.80
2022-11-14T17:17:22.146Z,79.30
2022-11-14T17:20:21.339Z,78.50
2022-11-14T17:23:23.527Z,72.70
2022-11-14T17:26:33.023Z,82.80
2022-11-14T17:29:41.282Z,74.40
2022-11-14T17:33:11.364Z,82.40
2022-11-14T17:36:50.603Z,89.50
2022-11-14T17:39:52.163Z,79.70
2022-11-14T17:42:59.212Z,87.00
2022-11-14T17:46:14.266Z,75.10
2022-11-14T17:49:08.005Z,68.90
2022-11-14T17:52:04.914Z,68.80
2022-11-14T17:55:07.211Z,68.40
2022-11-14T17:58:05.572Z,68.10
2022-11-14T18:01:59.820Z,70.40
2022-11-14T18:05:10.708Z,73.40
2022-11-14T18:08:10.968Z,71.60
2022-11-14T18:11:41.441Z,74.90
2022-11-14T18:19:42.436Z,72.10
2022-11-14T18:21:33.716Z,71.70
2022-11-14T18:24:53.908Z,72.70
2022-11-14T18:28:14.468Z,73.20
2022-11-14T18:31:14.015Z,65.30
2022-11-14T18:38:16.326Z,67.70
2022-11-14T18:41:28.977Z,65.50
2022-11-14T18:44:51.153Z,64.50
2022-11-14T18:50:41.825Z,65.20
2022-11-14T18:53:55.394Z,67.40
2022-11-14T19:00:12.222Z,65.80
2022-11-14T19:03:26.123Z,71.00
2022-11-14T19:07:18.495Z,66.80
2022-11-14T19:10:29.601Z,72.60
2022-11-14T19:17:21.153Z,76.30
2022-11-14T19:21:39.975Z,75.60
2022-11-14T19:25:09.314Z,72.30
2022-11-14T19:28:39.571Z,71.30
2022-11-14T19:32:17.002Z,71.30
2022-11-14T19:35:27.711Z,73.90
2022-11-14T19:38:38.602Z,83.60
2022-11-14T19:42:15.603Z,77.60
2022-11-14T19:45:20.617Z,74.00
2022-11-14T19:48:50.193Z,70.00
2022-11-14T19:51:53.648Z,67.80
2022-11-14T19:55:23.069Z,69.30
2022-11-14T19:59:24.382Z,68.70
2022-11-14T20:02:02.982Z,64.60
2022-11-14T20:05:20.902Z,64.80
2022-11-14T20:08:31.927Z,65.90
2022-11-14T20:11:48.441Z,60.90
2022-11-14T20:19:25.031Z,58.50
2022-11-14T20:23:55.160Z,88.50
2022-11-14T20:26:16.399Z,62.40
2022-11-14T20:29:23.937Z,62.00
2022-11-14T20:32:52.938Z,65.50
2022-11-14T20:37:10.495Z,59.30
2022-11-14T20:40:10.258Z,62.80
2022-11-14T20:43:20.722Z,62.40
2022-11-14T20:50:43.322Z,68.60
2022-11-14T20:53:48.777Z,68.50
2022-11-14T21:00:34.333Z,66.20
2022-11-14T21:03:59.382Z,70.60
2022-11-14T21:07:28.855Z,70.10
2022-11-14T21:10:43.616Z,70.90
2022-11-14T21:13:59.400Z,74.30
2022-11-14T21:17:03.717Z,72.10
2022-11-14T21:20:06.246Z,71.40
2022-11-14T21:24:14.920Z,67.10
2022-11-14T21:30:06.810Z,76.20
2022-11-14T21:37:09.798Z,69.90
2022-11-14T21:40:04.307Z,71.80
2022-11-14T21:43:20.464Z,69.20
2022-11-14T21:46:22.498Z,66.50
2022-11-14T21:49:58.522Z,69.10
2022-11-14T21:53:19.440Z,68.30
2022-11-14T21:56:46.664Z,66.80
2022-11-14T21:59:42.825Z,63.70
2022-11-14T22:03:06.954Z,62.10
2022-11-14T22:09:57.494Z,65.10
2022-11-14T22:13:37.090Z,64.30
2022-11-14T22:16:29.150Z,63.70
2022-11-14T22:19:31.273Z,67.00
2022-11-14T22:22:44.443Z,65.10
2022-11-14T22:26:33.829Z,68.70
2022-11-14T22:29:38.820Z,66.30
2022-11-14T22:32:29.222Z,63.00
2022-11-14T22:35:31.211Z,62.20
2022-11-14T22:38:27.149Z,67.70
2022-11-14T22:41:55.212Z,65.20
2022-11-14T22:45:03.086Z,63.70
2022-11-14T22:48:56.038Z,64.80
2022-11-14T22:51:58.756Z,61.70
2022-11-14T22:54:50.553Z,64.20
2022-11-14T22:58:01.610Z,61.60
2022-11-14T23:00:59.862Z,64.60
2022-11-14T23:04:19.783Z,66.00
2022-11-14T23:07:44.179Z,67.30
2022-11-14T23:11:03.291Z,70.00
2022-11-14T23:14:00.850Z,72.80
2022-11-14T23:16:52.830Z,66.00
2022-11-14T23:19:50.743Z,68.10
2022-11-14T23:26:16.673Z,67.30
2022-11-14T23:29:07.509Z,71.40
2022-11-14T23:32:03.183Z,66.40
2022-11-14T23:34:59.770Z,66.90
2022-11-14T23:37:50.250Z,68.80
2022-11-14T23:40:51.409Z,69.00
2022-11-14T23:43:55.709Z,71.90
2022-11-14T23:47:13.778Z,71.50
2022-11-14T23:50:06.795Z,73.10
2022-11-14T23:53:19.420Z,72.50
2022-11-14T23:56:17.372Z,72.60
2022-11-14T23:59:08.352Z,72.30
